Time;durP1;ratioP1;P1;durP2;ratioP2;P2;SDS_P1;SDS_P2;PMS_P1;PMS_P2;Temp;Humidity;BMP_temperature;BMP_pressure;BME280_temperature;BME280_humidity;BME280_pressure;Samples;Min_cycle;Max_cycle;Signal;HPM_P1;HPM_P2
2022/09/25 00:01:31;;;;;;;17.93;8.10;;;10.70;99.90;;;;;;5014900;28;20191;-63
2022/09/25 00:03:56;;;;;;;16.30;7.53;;;10.70;99.90;;;;;;5014648;28;20191;-63
2022/09/25 00:06:24;;;;;;;19.23;8.27;;;10.80;99.90;;;;;;5014685;28;20238;-63
2022/09/25 00:08:50;;;;;;;16.67;7.40;;;10.80;99.90;;;;;;5014633;28;20230;-63
2022/09/25 00:11:23;;;;;;;14.27;7.50;;;10.80;99.90;;;;;;5014694;28;20933;-63
2022/09/25 00:13:49;;;;;;;14.70;8.00;;;10.80;99.90;;;;;;5001811;28;20414;-63
2022/09/25 00:16:17;;;;;;;16.40;9.40;;;10.70;99.90;;;;;;5014207;28;20517;-63
2022/09/25 00:21:30;;;;;;;16.50;8.30;;;10.80;99.90;;;;;;5014689;28;20518;-63
2022/09/25 00:23:59;;;;;;;16.57;8.27;;;10.80;99.90;;;;;;5014354;28;20504;-63
2022/09/25 00:26:29;;;;;;;13.43;7.80;;;10.80;99.90;;;;;;5014016;28;20426;-63
2022/09/25 00:28:55;;;;;;;16.83;8.53;;;10.80;99.90;;;;;;4996541;28;20541;-63
2022/09/25 00:31:23;;;;;;;15.70;7.73;;;10.80;99.90;;;;;;5014526;28;21017;-63
2022/09/25 00:33:50;;;;;;;13.63;7.97;;;10.70;99.90;;;;;;5014380;28;20183;-63
2022/09/25 00:36:16;;;;;;;17.47;8.47;;;10.70;99.90;;;;;;5012880;28;20422;-63
2022/09/25 00:38:42;;;;;;;19.47;9.77;;;10.80;99.90;;;;;;5014031;28;20418;-63
2022/09/25 00:41:08;;;;;;;19.47;9.60;;;10.70;99.90;;;;;;4996389;28;20706;-64
2022/09/25 00:43:38;;;;;;;16.97;8.53;;;10.70;99.90;;;;;;5013821;28;20426;-63
2022/09/25 00:46:09;;;;;;;19.10;9.33;;;10.70;99.90;;;;;;5013589;28;20942;-63
2022/09/25 00:48:36;;;;;;;13.60;7.53;;;10.70;99.90;;;;;;5014150;28;20429;-63
2022/09/25 00:51:03;;;;;;;18.80;8.00;;;10.70;99.90;;;;;;4996553;28;20470;-63
2022/09/25 00:53:37;;;;;;;17.00;7.83;;;10.70;99.90;;;;;;5013748;28;20425;-63
2022/09/25 00:56:05;;;;;;;13.10;7.70;;;10.70;99.90;;;;;;5001088;28;20417;-63
2022/09/25 00:58:33;;;;;;;14.87;7.80;;;10.70;99.90;;;;;;5012051;28;20452;-63
2022/09/25 01:00:59;;;;;;;18.00;6.87;;;10.60;99.90;;;;;;4995804;28;20430;-63
2022/09/25 01:03:26;;;;;;;18.77;7.87;;;10.60;99.90;;;;;;5013731;28;21098;-63
2022/09/25 01:05:53;;;;;;;19.43;8.23;;;10.60;99.90;;;;;;4995848;28;20274;-63
2022/09/25 01:08:22;;;;;;;14.90;8.23;;;10.50;99.90;;;;;;5013445;28;20446;-63
2022/09/25 01:10:48;;;;;;;15.40;7.63;;;10.50;99.90;;;;;;5013446;28;20450;-63
2022/09/25 01:13:15;;;;;;;11.80;6.77;;;10.50;99.90;;;;;;5013393;28;20426;-63
2022/09/25 01:15:56;;;;;;;13.43;7.93;;;10.60;99.90;;;;;;5012737;28;20414;-63
2022/09/25 01:18:27;;;;;;;13.97;6.23;;;10.50;99.90;;;;;;5013583;28;20500;-63
2022/09/25 01:21:21;;;;;;;13.13;6.97;;;10.50;99.90;;;;;;5013630;28;20421;-63
2022/09/25 01:24:05;;;;;;;10.97;7.10;;;10.50;99.90;;;;;;5002115;28;20405;-63
2022/09/25 01:26:54;;;;;;;14.37;7.67;;;10.50;99.90;;;;;;5012974;28;20450;-63
2022/09/25 01:29:38;;;;;;;11.77;6.50;;;10.50;99.90;;;;;;5012853;28;20910;-63
2022/09/25 01:32:09;;;;;;;20.90;8.37;;;10.50;99.90;;;;;;5013383;28;20434;-63
2022/09/25 01:35:13;;;;;;;13.37;6.47;;;10.50;99.90;;;;;;5013176;28;20413;-63
2022/09/25 01:37:49;;;;;;;11.33;7.33;;;10.40;99.90;;;;;;5013289;28;20496;-63
2022/09/25 01:40:35;;;;;;;13.30;7.33;;;10.40;99.90;;;;;;5012960;28;20437;-63
2022/09/25 01:43:13;;;;;;;11.20;5.77;;;10.40;99.90;;;;;;5000356;28;20417;-63
2022/09/25 01:45:45;;;;;;;11.80;5.60;;;10.50;99.90;;;;;;5012130;28;20416;-63
2022/09/25 01:48:13;;;;;;;8.77;4.90;;;10.50;99.90;;;;;;4995311;28;20429;-63
2022/09/25 01:50:45;;;;;;;10.57;5.87;;;10.50;99.90;;;;;;5013158;28;21168;-63
2022/09/25 01:53:17;;;;;;;7.43;4.57;;;10.60;99.90;;;;;;4995264;28;20429;-63
2022/09/25 01:55:49;;;;;;;9.50;5.53;;;10.40;99.90;;;;;;5012636;28;20429;-63
2022/09/25 01:58:31;;;;;;;8.57;4.87;;;10.40;99.90;;;;;;5011328;28;20442;-63
2022/09/25 02:01:14;;;;;;;9.70;5.10;;;10.40;99.90;;;;;;5000491;28;20429;-63
2022/09/25 02:03:57;;;;;;;14.47;5.93;;;10.40;99.90;;;;;;5012778;28;20920;-63
2022/09/25 02:06:24;;;;;;;11.50;6.53;;;10.50;99.90;;;;;;4994731;28;20426;-63
2022/09/25 02:09:21;;;;;;;15.77;7.73;;;10.50;99.90;;;;;;4994702;28;20430;-63
2022/09/25 02:11:51;;;;;;;17.33;6.93;;;10.50;99.90;;;;;;5012482;28;20970;-65
2022/09/25 02:14:21;;;;;;;18.93;8.33;;;10.50;99.90;;;;;;5012246;28;20425;-63
2022/09/25 02:16:51;;;;;;;15.23;6.83;;;10.50;99.90;;;;;;5012262;28;20469;-63
2022/09/25 02:22:23;;;;;;;22.47;8.60;;;10.50;99.90;;;;;;5000612;28;20417;-63
2022/09/25 02:24:59;;;;;;;21.40;8.17;;;10.50;99.90;;;;;;5012083;28;20453;-63
2022/09/25 02:27:27;;;;;;;20.80;8.10;;;10.60;99.90;;;;;;5012400;28;20410;-63
2022/09/25 02:29:54;;;;;;;13.73;7.00;;;10.60;99.90;;;;;;5011754;28;20458;-63
2022/09/25 02:32:25;;;;;;;15.10;7.30;;;10.50;99.90;;;;;;5012589;28;20426;-63
2022/09/25 02:34:51;;;;;;;21.53;9.20;;;10.60;99.90;;;;;;5012060;28;20421;-63
2022/09/25 02:37:17;;;;;;;18.00;7.83;;;10.60;99.90;;;;;;5012159;28;20928;-63
2022/09/25 02:39:47;;;;;;;18.20;10.47;;;10.60;99.90;;;;;;5012077;28;20414;-63
2022/09/25 02:42:27;;;;;;;24.60;9.07;;;10.60;99.90;;;;;;5012338;28;21007;-63
2022/09/25 02:45:18;;;;;;;14.40;7.23;;;10.60;99.90;;;;;;5000047;28;20422;-63
2022/09/25 02:47:49;;;;;;;20.97;6.87;;;10.60;99.90;;;;;;5012323;28;20416;-63
2022/09/25 02:50:39;;;;;;;14.00;7.30;;;10.70;99.90;;;;;;5012044;28;20492;-63
2022/09/25 02:53:26;;;;;;;19.83;7.13;;;10.60;99.90;;;;;;5001637;28;20761;-63
2022/09/25 02:55:59;;;;;;;12.63;6.97;;;10.50;99.90;;;;;;5011665;28;20420;-63
2022/09/25 02:58:40;;;;;;;12.77;6.73;;;10.50;99.90;;;;;;4993684;28;20488;-63
2022/09/25 03:01:09;;;;;;;10.50;6.23;;;10.50;99.90;;;;;;5016205;28;20491;-63
2022/09/25 03:03:37;;;;;;;10.07;5.57;;;10.50;99.90;;;;;;5015793;28;20457;-63
2022/09/25 03:06:05;;;;;;;10.33;5.00;;;10.50;99.90;;;;;;5015548;28;20914;-63
2022/09/25 03:08:38;;;;;;;10.57;5.83;;;10.50;99.90;;;;;;4997534;28;20480;-64
2022/09/25 03:11:09;;;;;;;10.90;6.40;;;10.50;99.90;;;;;;5015916;28;20503;-64
2022/09/25 03:13:35;;;;;;;12.27;5.67;;;10.50;99.90;;;;;;5015022;28;20410;-63
2022/09/25 03:16:18;;;;;;;10.93;5.87;;;10.50;99.90;;;;;;5015462;28;20850;-63
2022/09/25 03:18:44;;;;;;;14.10;5.70;;;10.50;99.90;;;;;;5003514;28;20420;-64
2022/09/25 03:21:10;;;;;;;11.40;6.20;;;10.40;99.90;;;;;;5015788;28;20414;-64
2022/09/25 03:23:36;;;;;;;11.30;4.60;;;10.40;99.90;;;;;;5015486;28;20509;-64
2022/09/25 03:26:03;;;;;;;8.40;5.30;;;10.50;99.90;;;;;;4997627;28;20720;-64
2022/09/25 03:28:29;;;;;;;10.83;6.40;;;10.50;99.90;;;;;;5015175;28;20229;-64
2022/09/25 03:31:00;;;;;;;23.40;7.00;;;10.50;99.90;;;;;;5015373;28;20961;-64
2022/09/25 03:33:28;;;;;;;8.70;5.20;;;10.50;99.90;;;;;;5015479;28;20438;-64
2022/09/25 03:36:08;;;;;;;11.40;5.17;;;10.50;99.90;;;;;;5014958;28;20414;-64
2022/09/25 03:38:33;;;;;;;8.03;4.83;;;10.50;99.90;;;;;;5015204;28;20762;-64
2022/09/25 03:40:59;;;;;;;9.50;5.27;;;10.50;99.90;;;;;;4997895;28;20497;-64
2022/09/25 03:43:25;;;;;;;11.40;6.20;;;10.50;99.90;;;;;;4997334;28;20670;-64
2022/09/25 03:45:51;;;;;;;8.33;5.43;;;10.50;99.90;;;;;;5014866;28;20421;-64
2022/09/25 03:48:16;;;;;;;11.83;6.10;;;10.50;99.90;;;;;;5014995;28;20194;-64
2022/09/25 03:50:42;;;;;;;12.03;6.50;;;10.50;99.90;;;;;;4997694;28;20222;-64
2022/09/25 03:53:08;;;;;;;10.50;5.80;;;10.50;99.90;;;;;;5015336;28;20187;-64
2022/09/25 03:55:34;;;;;;;11.43;6.30;;;10.50;99.90;;;;;;4996793;28;20433;-64
2022/09/25 03:57:59;;;;;;;11.27;6.57;;;10.50;99.90;;;;;;5015074;28;20190;-64
2022/09/25 04:00:25;;;;;;;10.93;6.23;;;10.50;99.90;;;;;;5013340;28;20195;-64
2022/09/25 04:02:50;;;;;;;13.23;6.63;;;10.50;99.90;;;;;;4997516;28;20226;-65
2022/09/25 04:05:17;;;;;;;9.67;5.30;;;10.50;99.90;;;;;;5014369;28;20195;-65
2022/09/25 04:07:43;;;;;;;13.90;6.17;;;10.40;99.90;;;;;;5015209;28;20218;-64
2022/09/25 04:10:09;;;;;;;11.67;5.43;;;10.40;99.90;;;;;;5014321;28;20504;-65
2022/09/25 04:12:34;;;;;;;7.50;4.60;;;10.40;99.90;;;;;;5014857;28;20171;-65
2022/09/25 04:15:01;;;;;;;8.10;4.83;;;10.40;99.90;;;;;;5013594;28;20198;-65
2022/09/25 04:17:27;;;;;;;7.43;4.03;;;10.40;99.90;;;;;;5014797;28;20422;-65
2022/09/25 04:19:53;;;;;;;7.80;4.73;;;10.50;99.90;;;;;;5014662;28;20430;-65
2022/09/25 04:22:18;;;;;;;9.30;5.57;;;10.50;99.90;;;;;;5014718;28;21019;-65
2022/09/25 04:24:47;;;;;;;6.70;3.93;;;10.50;99.90;;;;;;5014080;28;20190;-65
2022/09/25 04:27:13;;;;;;;10.53;4.63;;;10.50;99.90;;;;;;4996710;28;20183;-65
2022/09/25 04:29:39;;;;;;;10.37;5.50;;;10.50;99.90;;;;;;5013730;28;20413;-65
2022/09/25 04:34:48;;;;;;;7.47;4.50;;;10.50;99.90;;;;;;5014195;28;20421;-66
2022/09/25 04:37:14;;;;;;;7.27;4.60;;;10.50;99.90;;;;;;5014163;28;20426;-66
2022/09/25 04:39:40;;;;;;;9.93;6.30;;;10.50;99.90;;;;;;5013977;28;20187;-65
2022/09/25 04:42:06;;;;;;;12.27;5.37;;;10.50;99.90;;;;;;5014269;28;20211;-66
2022/09/25 04:44:31;;;;;;;7.30;4.47;;;10.50;99.90;;;;;;4996118;28;20241;-63
2022/09/25 04:46:57;;;;;;;13.33;5.43;;;10.50;99.90;;;;;;4996156;28;20187;-63
2022/09/25 04:49:22;;;;;;;9.90;5.90;;;10.50;99.90;;;;;;5013953;28;20183;-64
2022/09/25 04:51:48;;;;;;;14.33;6.07;;;10.50;99.90;;;;;;5014118;28;20714;-64
2022/09/25 04:54:15;;;;;;;8.30;4.37;;;10.60;99.90;;;;;;5013763;28;20535;-64
2022/09/25 04:56:42;;;;;;;14.57;5.80;;;10.50;99.90;;;;;;5013629;28;20171;-64
2022/09/25 04:59:09;;;;;;;11.80;5.83;;;10.50;99.90;;;;;;5012336;28;20442;-64
2022/09/25 05:01:36;;;;;;;10.50;6.13;;;10.50;99.90;;;;;;5013866;28;20793;-65
2022/09/25 05:04:02;;;;;;;13.23;7.03;;;10.50;99.90;;;;;;5013549;28;20468;-64
2022/09/25 05:06:28;;;;;;;14.60;6.90;;;10.50;99.90;;;;;;5013532;28;20187;-64
2022/09/25 05:08:56;;;;;;;10.40;4.70;;;10.50;99.90;;;;;;5000420;28;20214;-64
2022/09/25 05:11:21;;;;;;;13.20;5.83;;;10.50;99.90;;;;;;4996086;28;20564;-64
2022/09/25 05:13:51;;;;;;;9.87;6.13;;;10.50;99.90;;;;;;5013302;28;20866;-64
2022/09/25 05:16:17;;;;;;;8.50;5.40;;;10.50;99.90;;;;;;5013257;28;20187;-65
2022/09/25 05:18:43;;;;;;;13.77;5.60;;;10.70;99.90;;;;;;5013230;28;20449;-65
2022/09/25 05:21:09;;;;;;;11.73;5.27;;;10.60;99.90;;;;;;5012786;28;20458;-65
2022/09/25 05:23:34;;;;;;;12.70;6.10;;;10.60;99.90;;;;;;5013538;28;20222;-65
2022/09/25 05:26:01;;;;;;;12.77;5.80;;;10.60;99.90;;;;;;5012858;28;20241;-65
2022/09/25 05:28:28;;;;;;;12.90;7.47;;;10.70;99.90;;;;;;5013120;28;20887;-65
2022/09/25 05:30:53;;;;;;;14.67;6.67;;;10.70;99.90;;;;;;5013456;28;20609;-65
2022/09/25 05:33:20;;;;;;;11.73;6.10;;;10.60;99.90;;;;;;5013141;28;20430;-65
2022/09/25 05:35:47;;;;;;;9.87;5.77;;;10.60;99.90;;;;;;5012724;28;20538;-65
2022/09/25 05:38:13;;;;;;;9.70;5.50;;;10.70;99.90;;;;;;5000229;28;20418;-65
2022/09/25 05:40:39;;;;;;;9.33;4.70;;;10.70;99.90;;;;;;5013074;28;20418;-65
2022/09/25 05:43:05;;;;;;;6.70;4.60;;;10.70;99.90;;;;;;5013284;28;20433;-64
2022/09/25 05:45:32;;;;;;;11.37;5.73;;;10.70;99.90;;;;;;5012337;28;20193;-65
2022/09/25 05:48:05;;;;;;;8.10;4.60;;;10.70;99.90;;;;;;4999992;28;20446;-64
2022/09/25 05:50:31;;;;;;;10.63;5.10;;;10.80;99.90;;;;;;5012800;28;20880;-64
2022/09/25 05:52:58;;;;;;;7.70;4.60;;;10.70;99.90;;;;;;5013222;28;20467;-65
2022/09/25 05:55:24;;;;;;;6.97;4.40;;;10.70;99.90;;;;;;5012163;28;20785;-66
2022/09/25 05:57:50;;;;;;;6.97;3.93;;;10.70;99.90;;;;;;5013069;28;20521;-64
2022/09/25 06:00:16;;;;;;;7.67;5.10;;;10.70;99.90;;;;;;5011493;28;20513;-65
2022/09/25 06:02:42;;;;;;;6.90;3.60;;;10.70;99.90;;;;;;5012514;28;20199;-65
2022/09/25 06:05:08;;;;;;;8.27;3.70;;;10.70;99.90;;;;;;5012386;28;20430;-65
2022/09/25 06:07:34;;;;;;;8.10;4.20;;;10.70;99.90;;;;;;4992073;28;20274;-65
2022/09/25 06:09:59;;;;;;;11.83;6.30;;;10.70;99.90;;;;;;5016321;28;20664;-65
2022/09/25 06:12:28;;;;;;;13.27;6.63;;;10.70;99.90;;;;;;5012783;28;20434;-64
2022/09/25 06:14:54;;;;;;;19.70;8.73;;;10.70;99.90;;;;;;4994062;28;20659;-64
2022/09/25 06:17:20;;;;;;;22.57;10.93;;;10.70;99.90;;;;;;5012550;28;20426;-64
2022/09/25 06:19:46;;;;;;;18.93;9.23;;;10.70;99.90;;;;;;4994898;28;20446;-64
2022/09/25 06:22:11;;;;;;;12.23;6.03;;;10.70;99.90;;;;;;5012629;28;20183;-69
2022/09/25 06:24:37;;;;;;;9.33;4.33;;;10.80;99.90;;;;;;5012116;28;20450;-65
2022/09/25 06:27:04;;;;;;;7.43;3.83;;;10.80;99.90;;;;;;5012208;28;20236;-65
2022/09/25 06:29:30;;;;;;;11.83;4.40;;;10.80;99.90;;;;;;5011848;28;20657;-65
2022/09/25 06:31:56;;;;;;;9.30;4.00;;;10.80;99.90;;;;;;4994746;28;20599;-65
2022/09/25 06:34:21;;;;;;;6.73;4.30;;;10.80;99.90;;;;;;5019670;28;20174;-65
2022/09/25 06:36:47;;;;;;;8.97;4.03;;;10.90;99.90;;;;;;5022656;28;20834;-65
2022/09/25 06:39:13;;;;;;;8.10;4.80;;;11.00;99.90;;;;;;5012025;28;20218;-65
2022/09/25 06:41:40;;;;;;;7.27;4.23;;;11.00;99.90;;;;;;5012388;28;20187;-66
2022/09/25 06:44:07;;;;;;;8.30;3.90;;;11.00;99.90;;;;;;5011787;28;20183;-66
2022/09/25 06:46:34;;;;;;;9.40;4.20;;;11.10;99.90;;;;;;5024399;28;20535;-66
2022/09/25 06:49:00;;;;;;;9.30;4.57;;;11.10;99.90;;;;;;5023314;28;20531;-65
2022/09/25 06:51:31;;;;;;;10.30;4.90;;;11.10;99.90;;;;;;5011471;28;20547;-65
2022/09/25 06:53:57;;;;;;;7.70;3.87;;;11.20;99.90;;;;;;5029557;28;20230;-65
2022/09/25 06:56:23;;;;;;;8.90;5.00;;;11.20;99.90;;;;;;5029319;28;20826;-66
2022/09/25 06:58:49;;;;;;;6.50;3.77;;;11.20;99.90;;;;;;5008572;28;20531;-65
2022/09/25 07:01:15;;;;;;;6.40;4.03;;;11.20;99.90;;;;;;5029187;28;20421;-65
2022/09/25 07:03:43;;;;;;;8.90;4.80;;;11.30;99.90;;;;;;5028547;28;20191;-65
2022/09/25 07:06:12;;;;;;;11.20;5.87;;;11.30;99.90;;;;;;5025602;28;20202;-65
2022/09/25 07:08:38;;;;;;;8.43;4.30;;;11.30;99.90;;;;;;5026981;28;20427;-65
2022/09/25 07:11:05;;;;;;;9.80;4.30;;;11.30;99.90;;;;;;5027850;28;20543;-65
2022/09/25 07:13:33;;;;;;;9.93;4.20;;;11.40;99.90;;;;;;5030106;28;20421;-65
2022/09/25 07:16:05;;;;;;;4.90;3.03;;;11.40;99.90;;;;;;5030263;28;20496;-65
2022/09/25 07:18:31;;;;;;;10.17;5.37;;;11.50;99.90;;;;;;5012711;28;20422;-65
2022/09/25 07:21:02;;;;;;;9.37;5.23;;;11.50;99.90;;;;;;5011867;28;20422;-65
2022/09/25 07:23:30;;;;;;;6.73;4.20;;;11.60;99.90;;;;;;5021669;28;20440;-65
2022/09/25 07:26:02;;;;;;;9.70;4.00;;;11.60;99.90;;;;;;5029963;28;20467;-65
2022/09/25 07:28:27;;;;;;;10.43;3.53;;;11.60;99.90;;;;;;5015620;28;20437;-65
2022/09/25 07:30:53;;;;;;;5.80;3.97;;;11.50;99.90;;;;;;5016041;28;21268;-65
2022/09/25 07:33:23;;;;;;;10.70;4.10;;;11.60;99.90;;;;;;5022548;28;20206;-66
2022/09/25 07:35:50;;;;;;;7.77;3.90;;;11.60;99.90;;;;;;5008202;28;20441;-65
2022/09/25 07:38:15;;;;;;;6.33;4.00;;;11.70;99.90;;;;;;5023672;28;20893;-65
2022/09/25 07:40:41;;;;;;;8.60;4.00;;;11.60;99.90;;;;;;5014239;28;20513;-66
2022/09/25 07:43:07;;;;;;;15.07;4.30;;;11.60;99.90;;;;;;5010526;28;20321;-65
2022/09/25 07:45:33;;;;;;;6.80;4.20;;;11.70;99.90;;;;;;4994096;28;20219;-65
2022/09/25 07:48:00;;;;;;;7.40;3.70;;;11.80;99.90;;;;;;5015007;28;20213;-65
2022/09/25 07:50:27;;;;;;;7.70;4.17;;;11.80;99.90;;;;;;5013392;28;20202;-64
2022/09/25 07:52:53;;;;;;;6.90;3.00;;;11.80;99.90;;;;;;5016783;28;20444;-63
2022/09/25 07:55:19;;;;;;;8.33;3.47;;;11.90;99.90;;;;;;5017672;28;21104;-64
2022/09/25 07:57:45;;;;;;;3.80;2.80;;;11.90;99.90;;;;;;5013300;28;20183;-64
2022/09/25 08:00:12;;;;;;;6.00;3.33;;;11.80;99.90;;;;;;5012156;28;20257;-64
2022/09/25 08:02:37;;;;;;;5.03;2.40;;;11.90;99.90;;;;;;5013608;28;20409;-64
2022/09/25 08:05:04;;;;;;;6.73;3.30;;;11.90;99.90;;;;;;5012894;28;20532;-65
2022/09/25 08:07:29;;;;;;;5.77;2.77;;;12.00;99.90;;;;;;5013639;28;20197;-64
2022/09/25 08:09:55;;;;;;;5.73;3.40;;;12.00;99.90;;;;;;5013362;28;20426;-64
2022/09/25 08:12:24;;;;;;;8.80;3.83;;;12.00;99.90;;;;;;5015009;28;20249;-64
2022/09/25 08:14:50;;;;;;;5.90;3.40;;;12.10;99.90;;;;;;5016917;28;20577;-64
2022/09/25 08:17:16;;;;;;;6.93;3.70;;;12.10;99.90;;;;;;5012260;28;20529;-65
2022/09/25 08:19:42;;;;;;;16.13;5.60;;;12.10;99.90;;;;;;5026184;28;20504;-65
2022/09/25 08:22:07;;;;;;;6.43;3.57;;;12.20;99.90;;;;;;5012412;28;20215;-65
2022/09/25 08:24:33;;;;;;;4.60;3.00;;;12.20;99.90;;;;;;5018515;28;20199;-65
2022/09/25 08:26:58;;;;;;;8.87;3.73;;;12.30;99.90;;;;;;5014339;28;20193;-65
2022/09/25 08:29:24;;;;;;;5.17;3.13;;;12.30;99.90;;;;;;5014086;28;20191;-65
2022/09/25 08:31:50;;;;;;;7.03;3.60;;;12.30;99.90;;;;;;5014113;28;20702;-67
2022/09/25 08:34:16;;;;;;;9.53;3.00;;;12.40;99.90;;;;;;4999807;28;20190;-65
2022/09/25 08:36:42;;;;;;;4.43;2.33;;;12.40;99.90;;;;;;5007827;28;20774;-65
2022/09/25 08:39:08;;;;;;;7.80;3.63;;;12.40;99.90;;;;;;5012630;28;20497;-65
2022/09/25 08:41:46;;;;;;;5.13;3.53;;;12.50;99.90;;;;;;4995544;28;20614;-65
2022/09/25 08:44:15;;;;;;;8.50;3.90;;;12.50;99.90;;;;;;5013087;28;20190;-65
2022/09/25 08:50:04;;;;;;;5.50;3.30;;;12.60;99.90;;;;;;5014027;28;20416;-65
2022/09/25 08:52:30;;;;;;;7.80;3.90;;;12.60;99.90;;;;;;5013785;28;20426;-65
2022/09/25 08:54:55;;;;;;;9.17;4.20;;;12.70;99.90;;;;;;5013095;28;20493;-65
2022/09/25 08:57:44;;;;;;;6.50;4.00;;;12.80;99.90;;;;;;5013116;28;20549;-65
2022/09/25 09:00:20;;;;;;;5.97;3.53;;;12.70;99.90;;;;;;5012620;28;20199;-65
2022/09/25 09:02:53;;;;;;;6.80;3.10;;;12.80;99.90;;;;;;5013995;28;20440;-65
2022/09/25 09:05:25;;;;;;;5.43;3.23;;;12.90;99.90;;;;;;5013534;28;20842;-65
2022/09/25 09:07:58;;;;;;;6.33;3.00;;;13.00;99.90;;;;;;5013890;28;20433;-64
2022/09/25 09:10:38;;;;;;;5.27;2.77;;;13.10;99.90;;;;;;5018899;28;20989;-64
2022/09/25 09:13:43;;;;;;;6.03;3.07;;;13.10;99.90;;;;;;5008276;28;20417;-65
2022/09/25 09:16:15;;;;;;;4.43;2.57;;;13.10;99.90;;;;;;4926626;28;20430;-65
2022/09/25 09:18:42;;;;;;;7.40;3.20;;;13.10;99.90;;;;;;4983370;28;20464;-65
2022/09/25 09:21:26;;;;;;;5.80;2.70;;;13.10;99.90;;;;;;5013603;28;20434;-67
2022/09/25 09:24:37;;;;;;;5.07;2.90;;;13.10;99.90;;;;;;5013444;28;20428;-67
2022/09/25 09:27:32;;;;;;;3.57;2.07;;;13.20;99.90;;;;;;4987021;28;20529;-67
2022/09/25 09:30:19;;;;;;;5.37;2.50;;;13.20;99.90;;;;;;4991913;28;20468;-66
2022/09/25 09:32:49;;;;;;;6.90;2.70;;;13.10;99.90;;;;;;5013434;28;20922;-65
2022/09/25 09:35:33;;;;;;;3.30;1.97;;;13.20;99.90;;;;;;5012912;28;20549;-65
2022/09/25 09:38:23;;;;;;;7.90;3.47;;;13.20;99.90;;;;;;5012929;28;20433;-65
2022/09/25 09:41:07;;;;;;;8.23;2.93;;;13.20;99.90;;;;;;5007980;28;20469;-65
2022/09/25 09:43:54;;;;;;;4.87;2.40;;;13.20;99.90;;;;;;5014375;28;20518;-65
2022/09/25 09:46:27;;;;;;;4.27;2.97;;;13.30;99.90;;;;;;5006213;28;20838;-65
2022/09/25 09:48:52;;;;;;;6.77;2.97;;;13.30;99.90;;;;;;5012967;28;20430;-64
2022/09/25 09:51:26;;;;;;;6.63;3.23;;;13.30;99.90;;;;;;5012928;28;20472;-63
2022/09/25 09:54:09;;;;;;;5.07;2.90;;;13.40;99.90;;;;;;5002530;28;20175;-64
2022/09/25 09:56:35;;;;;;;7.40;3.23;;;13.50;99.90;;;;;;5012001;28;20422;-63
2022/09/25 09:59:16;;;;;;;5.70;3.23;;;13.60;99.90;;;;;;5011617;28;20473;-64
2022/09/25 10:01:44;;;;;;;5.20;3.03;;;13.50;99.90;;;;;;4993932;28;20452;-64
2022/09/25 10:04:23;;;;;;;5.03;2.50;;;13.60;99.90;;;;;;5012558;28;20457;-64
2022/09/25 10:07:06;;;;;;;8.57;3.50;;;13.70;99.90;;;;;;5011776;28;20425;-64
2022/09/25 10:09:32;;;;;;;5.53;3.40;;;13.70;99.90;;;;;;5012693;28;20410;-64
2022/09/25 10:12:09;;;;;;;6.60;3.40;;;13.70;99.90;;;;;;4994569;28;21005;-64
2022/09/25 10:14:41;;;;;;;6.63;3.07;;;13.80;99.90;;;;;;5012284;28;20183;-64
2022/09/25 10:17:12;;;;;;;5.33;3.50;;;13.80;99.90;;;;;;5011841;28;20445;-63
2022/09/25 10:19:47;;;;;;;5.67;3.40;;;13.90;99.90;;;;;;5012403;28;20410;-63
2022/09/25 10:22:20;;;;;;;8.00;2.57;;;14.00;99.90;;;;;;4994919;28;20525;-63
2022/09/25 10:25:00;;;;;;;5.90;2.53;;;13.90;99.90;;;;;;4994161;28;20461;-64
2022/09/25 10:27:36;;;;;;;5.90;3.53;;;14.00;99.90;;;;;;5012335;28;20434;-64
2022/09/25 10:30:08;;;;;;;5.63;3.33;;;14.20;99.90;;;;;;5011992;28;20505;-63
2022/09/25 10:32:51;;;;;;;6.70;3.23;;;14.20;99.90;;;;;;5012570;28;20422;-64
2022/09/25 10:35:27;;;;;;;5.80;2.60;;;14.20;99.90;;;;;;5011901;28;20413;-63
2022/09/25 10:37:59;;;;;;;5.93;3.10;;;14.30;99.90;;;;;;5012219;28;20418;-64
2022/09/25 10:40:29;;;;;;;6.30;2.77;;;14.30;99.90;;;;;;5011719;28;20422;-64
2022/09/25 10:43:12;;;;;;;3.50;2.07;;;14.30;99.90;;;;;;4994734;28;20442;-64
2022/09/25 10:45:39;;;;;;;5.10;2.70;;;14.40;99.90;;;;;;5009428;28;20523;-64
2022/09/25 10:51:10;;;;;;;9.40;3.43;;;14.50;99.90;;;;;;5012299;28;20888;-63
2022/09/25 10:53:36;;;;;;;5.70;3.13;;;14.50;99.90;;;;;;5012037;28;20517;-64
2022/09/25 10:56:07;;;;;;;5.07;3.03;;;14.40;99.90;;;;;;5011253;28;20504;-64
2022/09/25 10:58:57;;;;;;;7.23;3.27;;;14.30;99.90;;;;;;5010730;28;20453;-64
2022/09/25 11:01:34;;;;;;;9.17;3.67;;;14.20;99.90;;;;;;4997026;28;20472;-64
2022/09/25 11:04:05;;;;;;;5.50;3.07;;;14.20;99.90;;;;;;5011994;28;20509;-64
2022/09/25 11:06:33;;;;;;;6.13;3.30;;;14.10;99.90;;;;;;5011344;28;20426;-64
2022/09/25 11:09:13;;;;;;;9.23;3.67;;;14.10;99.90;;;;;;5011818;28;20461;-64
2022/09/25 11:11:39;;;;;;;4.57;2.87;;;14.00;99.90;;;;;;5011703;28;20481;-63
2022/09/25 11:14:18;;;;;;;7.80;3.60;;;14.00;99.90;;;;;;4993863;28;20453;-64
2022/09/25 11:16:54;;;;;;;6.50;3.40;;;14.10;99.90;;;;;;5011901;28;20502;-64
2022/09/25 11:19:22;;;;;;;9.07;4.37;;;14.20;99.90;;;;;;5013392;28;20426;-64
2022/09/25 11:22:17;;;;;;;6.83;3.00;;;14.30;99.90;;;;;;4998776;28;20517;-64
2022/09/25 11:25:14;;;;;;;8.53;3.50;;;14.40;99.90;;;;;;4997747;28;20434;-64
2022/09/25 11:27:42;;;;;;;6.23;4.30;;;14.50;99.90;;;;;;5015781;28;20422;-64
2022/09/25 11:30:18;;;;;;;6.80;2.83;;;14.50;99.90;;;;;;4997512;28;20532;-64
2022/09/25 11:33:09;;;;;;;9.60;4.57;;;14.50;99.90;;;;;;5015798;28;20421;-64
2022/09/25 11:35:54;;;;;;;4.90;2.97;;;14.70;99.90;;;;;;5015179;28;20429;-64
2022/09/25 11:41:55;;;;;;;8.07;3.50;;;14.90;99.90;;;;;;5003625;28;20853;-65
2022/09/25 11:44:42;;;;;;;5.40;3.30;;;15.10;99.90;;;;;;4997355;28;20441;-65
2022/09/25 11:47:07;;;;;;;6.73;4.00;;;15.20;99.90;;;;;;5015022;28;20417;-65
2022/09/25 11:49:37;;;;;;;10.53;3.70;;;15.30;99.90;;;;;;4997630;28;20768;-65
2022/09/25 11:52:39;;;;;;;9.10;3.93;;;15.30;99.90;;;;;;5015237;28;20737;-65
2022/09/25 11:55:35;;;;;;;6.87;3.40;;;15.10;99.90;;;;;;5014617;28;20917;-65
2022/09/25 11:58:32;;;;;;;8.53;3.70;;;15.00;99.90;;;;;;5011714;28;20438;-64
2022/09/25 12:01:16;;;;;;;6.03;3.43;;;14.80;99.90;;;;;;4985616;28;20441;-65
2022/09/25 12:03:59;;;;;;;11.20;4.00;;;14.70;99.90;;;;;;5015026;28;20422;-65
2022/09/25 12:06:43;;;;;;;12.03;4.33;;;14.60;99.90;;;;;;5014491;28;21362;-65
2022/09/25 12:09:31;;;;;;;31.37;4.60;;;14.50;99.90;;;;;;5003835;28;20785;-65
2022/09/25 12:12:16;;;;;;;7.90;4.63;;;14.40;99.90;;;;;;5014426;28;20477;-65
2022/09/25 12:14:56;;;;;;;7.90;4.70;;;14.10;99.90;;;;;;5014306;28;20456;-65
2022/09/25 12:17:28;;;;;;;9.10;4.73;;;13.80;99.90;;;;;;5014793;28;20429;-65
2022/09/25 12:20:12;;;;;;;13.63;5.80;;;13.50;99.90;;;;;;5014522;28;20418;-65
2022/09/25 12:23:15;;;;;;;14.77;6.70;;;13.30;99.90;;;;;;4997240;28;20448;-65
2022/09/25 12:26:23;;;;;;;14.23;6.87;;;13.10;99.90;;;;;;5005170;28;20517;-64
2022/09/25 12:29:13;;;;;;;17.30;7.00;;;12.90;99.90;;;;;;4986886;28;21065;-64
2022/09/25 12:31:52;;;;;;;16.60;8.63;;;12.80;99.90;;;;;;5001096;28;20466;-65
2022/09/25 12:34:26;;;;;;;12.53;6.50;;;12.70;99.90;;;;;;5014438;28;20417;-64
2022/09/25 12:37:41;;;;;;;10.33;6.00;;;12.60;99.90;;;;;;5014168;28;20425;-65
2022/09/25 12:40:31;;;;;;;15.63;8.30;;;12.50;99.90;;;;;;5010745;28;20431;-66
2022/09/25 12:43:06;;;;;;;14.67;7.33;;;12.40;99.90;;;;;;5014599;28;20843;-64
2022/09/25 12:45:44;;;;;;;14.30;7.10;;;12.40;99.90;;;;;;5013323;28;20925;-64
2022/09/25 12:48:15;;;;;;;15.97;8.20;;;12.50;99.90;;;;;;5007161;28;20441;-64
2022/09/25 12:50:57;;;;;;;16.73;7.87;;;12.50;99.90;;;;;;5013960;28;20966;-64
2022/09/25 12:53:40;;;;;;;10.00;6.07;;;12.60;99.90;;;;;;5014175;28;20488;-64
2022/09/25 12:56:16;;;;;;;13.30;6.87;;;12.80;99.90;;;;;;5001194;28;20421;-65
2022/09/25 12:59:20;;;;;;;9.17;5.80;;;13.00;99.90;;;;;;5011932;28;20446;-65
2022/09/25 13:01:52;;;;;;;14.87;6.23;;;13.20;99.90;;;;;;5014121;28;20436;-65
2022/09/25 13:04:34;;;;;;;18.07;6.90;;;13.30;99.90;;;;;;5013872;28;20428;-64
2022/09/25 13:07:20;;;;;;;12.07;6.37;;;13.40;99.90;;;;;;5013451;28;20504;-65
2022/09/25 13:09:47;;;;;;;11.70;6.83;;;13.50;99.90;;;;;;5013688;28;20444;-65
2022/09/25 13:12:16;;;;;;;14.83;6.77;;;13.60;99.90;;;;;;5013272;28;20795;-65
2022/09/25 13:14:51;;;;;;;9.70;5.40;;;13.60;99.90;;;;;;5013278;28;20433;-65
2022/09/25 13:17:16;;;;;;;14.27;7.30;;;13.70;99.90;;;;;;5013671;28;20425;-65
2022/09/25 13:19:42;;;;;;;13.73;6.47;;;13.70;99.90;;;;;;5013419;28;20419;-65
2022/09/25 13:22:11;;;;;;;13.20;5.83;;;13.70;99.90;;;;;;5013671;28;20191;-65
2022/09/25 13:24:42;;;;;;;10.93;6.00;;;13.60;99.90;;;;;;5013483;28;20782;-65
2022/09/25 13:27:15;;;;;;;10.97;6.03;;;13.70;99.90;;;;;;4995315;28;20980;-65